Time;durP1;ratioP1;P1;durP2;ratioP2;P2;SDS_P1;SDS_P2;PMS_P1;PMS_P2;Temp;Humidity;BMP_temperature;BMP_pressure;BME280_temperature;BME280_humidity;BME280_pressure;Samples;Min_cycle;Max_cycle;Signal;HPM_P1;HPM_P2
2022/02/27 00:02:08;;;;;;;24.60;23.40;;;20.70;47.10;;;;;;5031787;28;20452;-45
2022/02/27 00:04:34;;;;;;;23.63;22.53;;;20.70;47.20;;;;;;5031528;28;20851;-48
2022/02/27 00:07:01;;;;;;;23.73;22.60;;;20.60;47.20;;;;;;5031598;28;20480;-43
2022/02/27 00:09:30;;;;;;;23.80;22.63;;;20.50;47.30;;;;;;5031070;28;20492;-43
2022/02/27 00:11:56;;;;;;;23.30;22.20;;;20.50;47.40;;;;;;5031467;28;20825;-43
2022/02/27 00:14:23;;;;;;;23.53;22.33;;;20.50;47.50;;;;;;5031655;28;20468;-44
2022/02/27 00:16:50;;;;;;;23.30;22.20;;;20.40;47.50;;;;;;5031490;28;20507;-44
2022/02/27 00:19:17;;;;;;;23.47;22.27;;;20.40;47.60;;;;;;5031013;28;20465;-43
2022/02/27 00:21:44;;;;;;;24.03;22.80;;;20.40;47.70;;;;;;5031181;28;20446;-44
2022/02/27 00:24:11;;;;;;;23.73;22.53;;;20.30;47.70;;;;;;5031436;28;20460;-43
2022/02/27 00:26:39;;;;;;;23.30;22.20;;;20.20;47.70;;;;;;5031401;28;20488;-44
2022/02/27 00:29:06;;;;;;;22.97;21.90;;;20.20;47.90;;;;;;5031200;28;21036;-43
2022/02/27 00:31:33;;;;;;;24.40;22.80;;;20.20;48.00;;;;;;5031535;28;20442;-44
2022/02/27 00:33:59;;;;;;;22.90;21.80;;;20.10;48.00;;;;;;5031111;28;20448;-43
2022/02/27 00:36:26;;;;;;;22.57;21.53;;;20.10;48.10;;;;;;5031358;28;20442;-43
2022/02/27 00:38:53;;;;;;;23.00;21.90;;;20.00;48.10;;;;;;5030961;28;20480;-43
2022/02/27 00:41:20;;;;;;;22.67;21.57;;;20.00;48.30;;;;;;5030948;28;20449;-43
2022/02/27 00:43:48;;;;;;;22.80;21.70;;;20.00;48.40;;;;;;5031459;28;20445;-44
2022/02/27 00:46:15;;;;;;;23.90;22.60;;;19.90;48.40;;;;;;5031121;28;20488;-44
2022/02/27 00:48:42;;;;;;;23.60;22.40;;;19.90;48.50;;;;;;5030952;28;20472;-43
2022/02/27 00:51:09;;;;;;;23.23;22.13;;;19.80;48.60;;;;;;5033206;28;20452;-43
2022/02/27 00:53:35;;;;;;;23.07;21.97;;;19.80;48.70;;;;;;5034575;28;20571;-43
2022/02/27 00:56:02;;;;;;;23.27;22.17;;;19.80;48.80;;;;;;5034777;28;20447;-43
2022/02/27 00:58:29;;;;;;;22.93;21.83;;;19.70;48.80;;;;;;5034379;28;20457;-43
2022/02/27 01:00:57;;;;;;;23.40;22.27;;;19.70;48.90;;;;;;5035158;28;20449;-43
2022/02/27 01:03:24;;;;;;;23.07;21.97;;;19.70;49.10;;;;;;5034217;28;20457;-43
2022/02/27 01:05:50;;;;;;;23.53;22.33;;;19.70;49.10;;;;;;5034567;28;20568;-43
2022/02/27 01:08:17;;;;;;;23.13;22.03;;;19.60;49.20;;;;;;5034414;28;20456;-43
2022/02/27 01:10:44;;;;;;;22.80;21.70;;;19.60;49.30;;;;;;5034366;28;20472;-44
2022/02/27 01:13:11;;;;;;;22.60;21.60;;;19.50;49.40;;;;;;5034347;28;20450;-43
2022/02/27 01:15:37;;;;;;;23.80;22.43;;;19.50;49.50;;;;;;5034035;28;20452;-43
2022/02/27 01:18:05;;;;;;;23.23;22.03;;;19.50;49.60;;;;;;5034160;28;20450;-44
2022/02/27 01:20:32;;;;;;;22.90;21.80;;;19.50;49.70;;;;;;5034069;28;20465;-43
2022/02/27 01:22:59;;;;;;;22.80;21.80;;;19.40;49.60;;;;;;5034132;28;20445;-43
2022/02/27 01:25:26;;;;;;;23.03;22.03;;;19.40;49.80;;;;;;5034121;28;20806;-43
2022/02/27 01:27:52;;;;;;;22.90;21.90;;;19.40;49.80;;;;;;5033519;28;20486;-43
2022/02/27 01:30:19;;;;;;;22.47;21.37;;;19.30;49.80;;;;;;5033987;28;20461;-43
2022/02/27 01:32:46;;;;;;;23.00;21.90;;;19.30;49.90;;;;;;5034116;28;20453;-43
2022/02/27 01:35:14;;;;;;;22.60;21.60;;;19.30;50.00;;;;;;5033759;28;20452;-45
2022/02/27 01:37:41;;;;;;;23.13;22.03;;;19.20;50.00;;;;;;5033754;28;20927;-43
2022/02/27 01:40:09;;;;;;;22.67;21.57;;;19.30;50.20;;;;;;5033760;28;20473;-43
2022/02/27 01:42:35;;;;;;;22.30;21.30;;;19.20;50.10;;;;;;5033870;28;20536;-45
2022/02/27 01:45:04;;;;;;;22.93;21.83;;;19.20;50.20;;;;;;5033669;28;20799;-45
2022/02/27 01:47:31;;;;;;;22.37;21.20;;;19.20;50.30;;;;;;5033566;28;20535;-45
2022/02/27 01:49:58;;;;;;;23.00;21.80;;;19.20;50.40;;;;;;5033361;28;20975;-43
2022/02/27 01:52:26;;;;;;;22.20;21.20;;;19.10;50.30;;;;;;5033764;28;20453;-43
2022/02/27 01:54:53;;;;;;;23.37;22.17;;;19.10;50.30;;;;;;5033615;28;20778;-43
2022/02/27 01:57:21;;;;;;;23.50;22.20;;;19.10;50.40;;;;;;5033477;28;20939;-43
2022/02/27 01:59:48;;;;;;;21.90;21.00;;;19.10;50.50;;;;;;5033121;28;20822;-44
2022/02/27 02:02:14;;;;;;;22.67;21.50;;;19.10;50.50;;;;;;5033252;28;20943;-43
2022/02/27 02:04:42;;;;;;;23.33;22.23;;;19.00;50.50;;;;;;5033384;28;20445;-43
2022/02/27 02:07:09;;;;;;;22.30;21.30;;;19.00;50.50;;;;;;5033280;28;20575;-45
2022/02/27 02:09:37;;;;;;;22.03;21.03;;;19.00;50.50;;;;;;5032851;28;20990;-44
2022/02/27 02:12:05;;;;;;;22.40;21.23;;;19.00;50.70;;;;;;5033224;28;20441;-43
2022/02/27 02:14:32;;;;;;;22.47;21.30;;;19.00;50.70;;;;;;5033401;28;20460;-43
2022/02/27 02:16:59;;;;;;;22.23;21.13;;;18.90;50.70;;;;;;5033125;28;20445;-43
2022/02/27 02:19:27;;;;;;;22.67;21.57;;;18.90;50.80;;;;;;5032858;28;20469;-43
2022/02/27 02:22:00;;;;;;;23.07;21.97;;;18.90;50.90;;;;;;5032874;28;20441;-42
2022/02/27 02:24:28;;;;;;;22.20;21.10;;;18.90;50.90;;;;;;5033028;28;20445;-43
2022/02/27 02:26:55;;;;;;;22.50;21.30;;;18.80;50.90;;;;;;5032783;28;20489;-43
2022/02/27 02:29:23;;;;;;;23.50;22.30;;;18.80;50.90;;;;;;5032819;28;20503;-43
2022/02/27 02:31:51;;;;;;;22.87;21.67;;;18.80;51.00;;;;;;5032878;28;20452;-43
2022/02/27 02:34:20;;;;;;;23.00;21.80;;;18.80;51.10;;;;;;5032825;28;20481;-44
2022/02/27 02:36:48;;;;;;;22.30;21.30;;;18.80;51.10;;;;;;5032889;28;20450;-43
2022/02/27 02:39:17;;;;;;;22.73;21.60;;;18.70;51.10;;;;;;5032420;28;20465;-44
2022/02/27 02:41:45;;;;;;;23.17;21.97;;;18.70;51.20;;;;;;5032611;28;20445;-44
2022/02/27 02:44:13;;;;;;;22.23;21.23;;;18.70;51.30;;;;;;5032691;28;20461;-43
2022/02/27 02:46:40;;;;;;;22.10;21.10;;;18.60;51.30;;;;;;5032464;28;20492;-44
2022/02/27 02:49:09;;;;;;;22.47;21.37;;;18.60;51.40;;;;;;5032313;28;20816;-43
2022/02/27 02:51:37;;;;;;;22.00;21.00;;;18.60;51.40;;;;;;5032487;28;20452;-45
2022/02/27 02:54:04;;;;;;;22.37;21.10;;;18.60;51.50;;;;;;5032360;28;20448;-43
2022/02/27 02:56:32;;;;;;;22.40;21.30;;;18.60;51.50;;;;;;5032413;28;20488;-43
2022/02/27 02:58:59;;;;;;;22.30;21.30;;;18.60;51.60;;;;;;5031903;28;20524;-43
2022/02/27 03:01:26;;;;;;;22.03;20.90;;;18.50;51.60;;;;;;5032404;28;20445;-42
2022/02/27 03:03:54;;;;;;;22.27;21.17;;;18.50;51.60;;;;;;5032504;28;20444;-44
2022/02/27 03:06:21;;;;;;;22.20;21.10;;;18.50;51.70;;;;;;5032388;28;20442;-43
2022/02/27 03:08:49;;;;;;;22.43;21.43;;;18.50;51.70;;;;;;5031938;28;20472;-43
2022/02/27 03:11:18;;;;;;;22.00;21.00;;;18.50;51.70;;;;;;5031862;28;20445;-43
2022/02/27 03:13:47;;;;;;;23.10;21.80;;;18.50;52.30;;;;;;5031683;28;20497;-44
2022/02/27 03:16:14;;;;;;;23.00;21.90;;;18.40;51.70;;;;;;5032132;28;20454;-45
2022/02/27 03:18:42;;;;;;;22.13;21.03;;;18.40;51.80;;;;;;5031882;28;20476;-42
2022/02/27 03:21:09;;;;;;;22.73;21.53;;;18.40;52.00;;;;;;5031798;28;20445;-44
2022/02/27 03:23:37;;;;;;;22.67;21.57;;;18.40;52.00;;;;;;5031804;28;20810;-44
2022/02/27 03:26:04;;;;;;;21.73;20.73;;;18.40;52.10;;;;;;5032032;28;20857;-43
2022/02/27 03:28:31;;;;;;;22.40;21.40;;;18.30;52.10;;;;;;5031650;28;20846;-43
2022/02/27 03:30:59;;;;;;;22.13;21.13;;;18.30;52.20;;;;;;5031909;28;20452;-43
2022/02/27 03:33:26;;;;;;;22.40;21.30;;;18.30;52.30;;;;;;5031662;28;20993;-43
2022/02/27 03:35:53;;;;;;;22.40;21.20;;;18.30;52.40;;;;;;5031847;28;20452;-43
2022/02/27 03:38:19;;;;;;;22.33;21.33;;;18.20;52.40;;;;;;5031918;28;20452;-43
2022/02/27 03:40:47;;;;;;;21.90;20.90;;;18.20;52.40;;;;;;5031749;28;20446;-44
2022/02/27 03:43:14;;;;;;;22.00;21.00;;;18.20;52.40;;;;;;5031819;28;20449;-43
2022/02/27 03:45:41;;;;;;;22.40;21.30;;;18.20;52.40;;;;;;5031668;28;20453;-43
2022/02/27 03:48:09;;;;;;;21.20;20.30;;;18.10;52.40;;;;;;5031592;28;20534;-43
2022/02/27 03:50:36;;;;;;;22.70;21.63;;;18.10;52.40;;;;;;5031535;28;20465;-44
2022/02/27 03:53:03;;;;;;;22.93;21.83;;;18.10;52.60;;;;;;5031764;28;20453;-43
2022/02/27 03:55:29;;;;;;;22.40;21.30;;;18.10;52.80;;;;;;5032102;28;20449;-43
2022/02/27 03:57:56;;;;;;;22.60;21.50;;;18.00;52.90;;;;;;5031309;28;20437;-44
2022/02/27 04:00:24;;;;;;;22.93;21.67;;;18.00;53.00;;;;;;5031440;28;20477;-43
2022/02/27 04:02:51;;;;;;;22.53;21.53;;;18.00;53.30;;;;;;5031720;28;20846;-47
2022/02/27 04:05:20;;;;;;;22.17;21.17;;;18.00;53.30;;;;;;5032031;28;20452;-43
2022/02/27 04:07:47;;;;;;;22.40;21.40;;;18.00;53.50;;;;;;5031460;28;20512;-43
2022/02/27 04:10:14;;;;;;;22.60;21.50;;;17.90;53.60;;;;;;5031403;28;21005;-46
2022/02/27 04:12:41;;;;;;;22.43;21.43;;;18.00;53.80;;;;;;5031302;28;20818;-43
2022/02/27 04:15:10;;;;;;;22.80;21.60;;;17.90;53.70;;;;;;5032033;28;20442;-43
2022/02/27 04:17:37;;;;;;;22.07;21.00;;;17.90;53.80;;;;;;5031575;28;20472;-43
2022/02/27 04:20:05;;;;;;;22.50;21.33;;;17.90;53.90;;;;;;5031312;28;20468;-44
2022/02/27 04:22:33;;;;;;;22.10;21.00;;;17.90;54.10;;;;;;5031285;28;20441;-44
2022/02/27 04:24:59;;;;;;;23.03;21.93;;;17.80;54.20;;;;;;5031916;28;20471;-46
2022/02/27 04:27:26;;;;;;;21.77;20.67;;;17.80;54.40;;;;;;5035141;28;21010;-44
2022/02/27 04:29:53;;;;;;;22.17;21.10;;;17.80;54.60;;;;;;5034963;28;20469;-49
2022/02/27 04:32:20;;;;;;;21.70;20.70;;;17.80;54.70;;;;;;5035676;28;20441;-44
2022/02/27 04:34:47;;;;;;;22.70;21.60;;;17.80;54.80;;;;;;5034967;28;20445;-44
2022/02/27 04:37:14;;;;;;;21.80;20.80;;;17.80;54.90;;;;;;5034854;28;20440;-45
2022/02/27 04:39:42;;;;;;;21.60;20.60;;;17.70;54.90;;;;;;5034749;28;20476;-46
2022/02/27 04:42:09;;;;;;;22.80;21.60;;;17.70;55.00;;;;;;5034866;28;20445;-47
2022/02/27 04:44:35;;;;;;;21.93;21.03;;;17.70;55.10;;;;;;5034910;28;20472;-45
2022/02/27 04:47:02;;;;;;;22.60;21.40;;;17.70;55.40;;;;;;5034501;28;20990;-43
2022/02/27 04:49:29;;;;;;;22.30;21.20;;;17.60;55.50;;;;;;5034667;28;20839;-43
2022/02/27 04:51:56;;;;;;;22.23;21.23;;;17.60;55.90;;;;;;5034656;28;20449;-44
2022/02/27 04:54:23;;;;;;;22.30;21.10;;;17.60;56.10;;;;;;5034935;28;20448;-43
2022/02/27 04:56:51;;;;;;;21.70;20.70;;;17.60;56.30;;;;;;5034762;28;20935;-43
2022/02/27 04:59:17;;;;;;;22.20;21.10;;;17.60;56.40;;;;;;5033839;28;20481;-45
2022/02/27 05:01:44;;;;;;;21.20;20.20;;;17.60;56.50;;;;;;5034740;28;20456;-44
2022/02/27 05:04:11;;;;;;;22.40;21.30;;;17.60;56.50;;;;;;5034643;28;20453;-44
2022/02/27 05:06:38;;;;;;;22.67;21.57;;;17.50;56.60;;;;;;5034893;28;20444;-45
2022/02/27 05:09:05;;;;;;;22.67;21.47;;;17.50;56.70;;;;;;5034298;28;20489;-43
2022/02/27 05:11:32;;;;;;;22.20;21.20;;;17.50;56.70;;;;;;5034613;28;20804;-43
2022/02/27 05:14:00;;;;;;;22.60;21.40;;;17.50;56.70;;;;;;5034695;28;20445;-46
2022/02/27 05:16:28;;;;;;;22.80;21.73;;;17.50;56.90;;;;;;5034529;28;20449;-45
2022/02/27 05:18:54;;;;;;;21.23;20.33;;;17.40;56.80;;;;;;5033605;28;20462;-43
2022/02/27 05:21:21;;;;;;;22.33;21.23;;;17.40;57.00;;;;;;5014605;28;20446;-45
2022/02/27 05:23:48;;;;;;;22.73;21.60;;;17.40;57.00;;;;;;5014408;28;20450;-44
2022/02/27 05:26:15;;;;;;;22.77;21.57;;;17.40;57.20;;;;;;5014785;28;20458;-43
2022/02/27 05:28:42;;;;;;;22.97;21.87;;;17.40;57.20;;;;;;5028106;28;20489;-43
2022/02/27 05:31:10;;;;;;;22.00;21.00;;;17.40;57.30;;;;;;5034147;28;20941;-45
2022/02/27 05:33:36;;;;;;;22.27;21.17;;;17.40;57.40;;;;;;5034353;28;20445;-45
2022/02/27 05:36:03;;;;;;;22.37;21.37;;;17.40;57.50;;;;;;5033714;28;20961;-45
2022/02/27 05:38:30;;;;;;;22.50;21.50;;;17.40;57.50;;;;;;5033728;28;20446;-46
2022/02/27 05:40:57;;;;;;;22.10;21.00;;;17.40;57.60;;;;;;5033941;28;20942;-43
2022/02/27 05:43:24;;;;;;;22.40;21.40;;;17.40;57.60;;;;;;5034162;28;20468;-45
2022/02/27 05:45:51;;;;;;;22.13;21.13;;;17.30;57.50;;;;;;5033925;28;20456;-43
2022/02/27 05:48:19;;;;;;;23.23;22.10;;;17.30;57.60;;;;;;5033350;28;20479;-44
2022/02/27 05:50:45;;;;;;;22.57;21.37;;;17.50;58.40;;;;;;5033822;28;20452;-43
2022/02/27 05:53:12;;;;;;;21.97;20.97;;;17.70;58.90;;;;;;5033787;28;20452;-42
2022/02/27 05:55:39;;;;;;;21.97;20.70;;;17.90;58.30;;;;;;5033782;28;20935;-42
2022/02/27 05:58:06;;;;;;;21.87;20.87;;;18.10;57.80;;;;;;5033953;28;20437;-43
2022/02/27 06:00:32;;;;;;;21.70;20.70;;;18.20;57.40;;;;;;5033485;28;20485;-43
2022/02/27 06:02:59;;;;;;;22.50;21.40;;;18.60;56.90;;;;;;5033553;28;20455;-43
2022/02/27 06:05:29;;;;;;;34.60;33.30;;;18.80;56.10;;;;;;5033684;28;20453;-42
2022/02/27 06:07:55;;;;;;;32.27;30.87;;;19.00;55.50;;;;;;5033369;28;20860;-43
2022/02/27 06:10:23;;;;;;;34.10;32.80;;;19.20;54.90;;;;;;5033397;28;20835;-43
2022/02/27 06:12:50;;;;;;;36.17;34.87;;;19.50;54.40;;;;;;5033226;28;20484;-44
2022/02/27 06:15:18;;;;;;;33.17;31.87;;;20.00;53.10;;;;;;5033363;28;20452;-41
2022/02/27 06:17:44;;;;;;;36.37;34.90;;;19.90;52.10;;;;;;5033278;28;20442;-41
2022/02/27 06:20:12;;;;;;;37.20;35.80;;;20.00;51.90;;;;;;5033165;28;20480;-42
2022/02/27 06:22:42;;;;;;;34.90;33.50;;;20.00;51.60;;;;;;5033106;28;20450;-41
2022/02/27 06:25:10;;;;;;;34.30;33.10;;;20.20;51.20;;;;;;5032881;28;20453;-41
2022/02/27 06:27:42;;;;;;;30.37;29.17;;;20.30;50.70;;;;;;5033010;28;20491;-41
2022/02/27 06:30:10;;;;;;;29.20;28.10;;;20.30;50.40;;;;;;5032936;28;20469;-40
2022/02/27 06:32:36;;;;;;;32.60;31.20;;;20.40;50.20;;;;;;5033434;28;20445;-42
2022/02/27 06:35:03;;;;;;;31.60;30.40;;;20.50;49.90;;;;;;5032886;28;20468;-41
2022/02/27 06:37:30;;;;;;;36.97;35.57;;;20.70;49.40;;;;;;5033040;28;20445;-45
2022/02/27 06:39:58;;;;;;;30.40;29.30;;;20.70;49.10;;;;;;5032345;28;20986;-41
2022/02/27 06:42:25;;;;;;;30.43;29.23;;;20.60;49.10;;;;;;5032876;28;20820;-41
2022/02/27 06:44:52;;;;;;;31.80;30.57;;;20.60;49.10;;;;;;5033014;28;20446;-42
2022/02/27 06:47:19;;;;;;;34.00;32.70;;;20.70;49.10;;;;;;5032514;28;20524;-42
2022/02/27 06:49:46;;;;;;;33.93;32.73;;;20.70;48.80;;;;;;5031865;28;20869;-42
2022/02/27 06:52:13;;;;;;;35.73;34.43;;;20.70;48.80;;;;;;5012932;28;20469;-42
2022/02/27 06:54:40;;;;;;;36.87;35.57;;;20.70;48.60;;;;;;5012930;28;20811;-43
2022/02/27 06:57:08;;;;;;;33.30;32.10;;;20.80;48.50;;;;;;5003581;28;20903;-44
2022/02/27 06:59:35;;;;;;;30.80;29.30;;;20.70;48.50;;;;;;5001324;28;20478;-43
2022/02/27 07:02:02;;;;;;;29.27;28.17;;;20.70;48.60;;;;;;5012856;28;20446;-42
2022/02/27 07:04:28;;;;;;;35.50;34.20;;;20.70;48.80;;;;;;5032605;28;20445;-46
2022/02/27 07:06:55;;;;;;;36.00;34.70;;;20.70;48.80;;;;;;5032526;28;20441;-42
2022/02/27 07:09:23;;;;;;;33.20;31.90;;;20.70;48.80;;;;;;5031984;28;20578;-43
2022/02/27 07:11:49;;;;;;;33.87;32.47;;;20.60;48.80;;;;;;5032543;28;20480;-42
2022/02/27 07:14:18;;;;;;;35.63;34.30;;;20.60;48.90;;;;;;5032176;28;20438;-44
2022/02/27 07:16:44;;;;;;;32.77;31.37;;;20.60;49.10;;;;;;5032396;28;20457;-43
2022/02/27 07:19:11;;;;;;;31.90;30.60;;;20.60;49.20;;;;;;5031948;28;20475;-42
2022/02/27 07:21:38;;;;;;;29.50;28.37;;;20.60;49.40;;;;;;5032355;28;20446;-42
2022/02/27 07:24:05;;;;;;;31.30;30.10;;;20.60;49.50;;;;;;5031917;28;20807;-44
2022/02/27 07:26:32;;;;;;;34.47;33.07;;;20.60;49.50;;;;;;5031782;28;20449;-43
2022/02/27 07:28:59;;;;;;;36.87;35.47;;;20.60;49.60;;;;;;5031590;28;20559;-42
2022/02/27 07:31:27;;;;;;;36.33;34.80;;;20.60;49.70;;;;;;5031997;28;20449;-44
2022/02/27 07:33:54;;;;;;;32.42;31.13;;;20.60;49.80;;;;;;5031350;28;20441;-43
2022/02/27 07:36:21;;;;;;;32.43;31.10;;;20.60;49.80;;;;;;5031975;28;20237;-43
2022/02/27 07:38:48;;;;;;;32.53;31.23;;;20.70;49.80;;;;;;5031529;28;20468;-43
2022/02/27 07:41:15;;;;;;;33.43;32.13;;;20.60;49.70;;;;;;5031684;28;20457;-43
2022/02/27 07:43:42;;;;;;;33.83;32.53;;;20.60;49.60;;;;;;5031939;28;20459;-43
2022/02/27 07:46:08;;;;;;;32.37;31.17;;;20.60;49.70;;;;;;5031927;28;20965;-43
2022/02/27 07:48:36;;;;;;;28.58;27.27;;;20.60;49.70;;;;;;5031024;28;20464;-45
2022/02/27 07:51:03;;;;;;;31.03;29.73;;;20.60;49.70;;;;;;5031606;28;20194;-45
2022/02/27 07:53:30;;;;;;;29.60;28.40;;;20.70;49.70;;;;;;5031256;28;20468;-43
2022/02/27 07:55:57;;;;;;;29.63;28.53;;;20.60;49.70;;;;;;5031843;28;20199;-41
2022/02/27 07:58:23;;;;;;;34.87;33.47;;;20.60;49.70;;;;;;5031479;28;20468;-44
2022/02/27 08:00:50;;;;;;;34.10;32.53;;;20.60;50.40;;;;;;5035385;28;20456;-45
2022/02/27 08:03:17;;;;;;;32.47;30.83;;;20.60;49.80;;;;;;5035579;28;20445;-43
2022/02/27 08:05:45;;;;;;;33.37;31.83;;;20.60;49.90;;;;;;5035986;28;20455;-44
2022/02/27 08:08:12;;;;;;;32.90;31.17;;;20.60;50.00;;;;;;5035652;28;20480;-43
2022/02/27 08:10:39;;;;;;;32.33;30.53;;;20.50;49.90;;;;;;5035468;28;20496;-44
2022/02/27 08:13:06;;;;;;;33.60;32.10;;;20.50;50.00;;;;;;5035426;28;20453;-44
2022/02/27 08:15:33;;;;;;;35.27;33.63;;;20.50;50.00;;;;;;5035593;28;20499;-43
2022/02/27 08:17:59;;;;;;;31.90;30.30;;;20.50;50.00;;;;;;5035814;28;20453;-43
2022/02/27 08:20:26;;;;;;;29.40;28.10;;;20.50;50.00;;;;;;5035519;28;20472;-44
2022/02/27 08:22:54;;;;;;;26.30;25.10;;;20.50;50.10;;;;;;5035551;28;20453;-45
2022/02/27 08:25:21;;;;;;;34.50;32.83;;;20.50;50.10;;;;;;5035253;28;20943;-43
2022/02/27 08:27:48;;;;;;;32.03;30.73;;;20.50;50.10;;;;;;5035461;28;20460;-45
2022/02/27 08:30:15;;;;;;;28.57;27.30;;;20.50;50.00;;;;;;5035169;28;20488;-45
2022/02/27 08:32:41;;;;;;;27.30;26.07;;;20.40;50.00;;;;;;5035342;28;20441;-43
2022/02/27 08:35:09;;;;;;;29.67;28.37;;;20.40;50.00;;;;;;5034920;28;20457;-44
2022/02/27 08:37:36;;;;;;;32.00;30.70;;;20.40;50.00;;;;;;5035200;28;20456;-45
2022/02/27 08:40:05;;;;;;;31.40;30.20;;;20.40;50.10;;;;;;5028101;28;20468;-45
2022/02/27 08:42:32;;;;;;;36.80;35.30;;;20.40;50.10;;;;;;5023350;28;20460;-47
2022/02/27 08:44:59;;;;;;;26.90;25.80;;;20.20;51.00;;;;;;5023869;28;20463;-47
2022/02/27 08:47:26;;;;;;;30.80;29.50;;;20.00;51.00;;;;;;5022845;28;20496;-46
2022/02/27 08:49:52;;;;;;;27.07;25.77;;;19.80;49.90;;;;;;5022842;28;20508;-47
2022/02/27 08:52:19;;;;;;;27.80;26.60;;;20.00;48.20;;;;;;5023117;28;20457;-48
2022/02/27 08:54:48;;;;;;;30.13;28.53;;;20.40;45.40;;;;;;5023002;28;20571;-45
2022/02/27 08:57:16;;;;;;;28.80;27.60;;;20.40;42.60;;;;;;5022900;28;20463;-46
2022/02/27 08:59:43;;;;;;;28.97;27.67;;;20.50;40.70;;;;;;5022826;28;20516;-48
2022/02/27 09:02:10;;;;;;;28.23;27.03;;;20.50;39.70;;;;;;5022680;28;20453;-48
2022/02/27 09:04:37;;;;;;;28.77;27.37;;;20.50;38.50;;;;;;5022718;28;20453;-48
2022/02/27 09:07:04;;;;;;;32.67;31.37;;;20.50;37.50;;;;;;5022696;28;20815;-46
2022/02/27 09:09:31;;;;;;;29.07;27.77;;;20.40;37.10;;;;;;5022319;28;20485;-44
2022/02/27 09:11:58;;;;;;;31.27;30.07;;;20.20;37.40;;;;;;5021947;28;20977;-45
2022/02/27 09:14:27;;;;;;;31.20;29.60;;;20.00;37.90;;;;;;5022664;28;20931;-45
2022/02/27 09:16:53;;;;;;;31.80;30.50;;;19.90;39.20;;;;;;5022804;28;20453;-50
2022/02/27 09:19:20;;;;;;;32.33;30.83;;;19.90;41.70;;;;;;5022452;28;20817;-50
2022/02/27 09:21:47;;;;;;;32.83;31.20;;;19.80;45.10;;;;;;5022781;28;20449;-47
2022/02/27 09:24:13;;;;;;;35.97;34.30;;;19.80;46.40;;;;;;5022474;28;20547;-45
2022/02/27 09:26:43;;;;;;;33.63;32.03;;;19.70;46.30;;;;;;5022174;28;20800;-44
2022/02/27 09:29:09;;;;;;;34.30;32.80;;;19.70;47.00;;;;;;5022007;28;20534;-46
2022/02/27 09:31:38;;;;;;;29.23;27.63;;;19.70;47.50;;;;;;5026506;28;20449;-46
2022/02/27 09:34:05;;;;;;;36.53;34.53;;;19.70;48.50;;;;;;5030868;28;20202;-47
2022/02/27 09:36:31;;;;;;;31.30;29.70;;;19.70;48.20;;;;;;5033385;28;20449;-44
2022/02/27 09:38:58;;;;;;;33.37;31.87;;;19.70;48.10;;;;;;5033401;28;20475;-44
2022/02/27 09:41:25;;;;;;;33.30;31.50;;;19.70;48.20;;;;;;5033712;28;20472;-45
2022/02/27 09:43:54;;;;;;;32.00;30.70;;;19.60;48.20;;;;;;5033733;28;20445;-43
2022/02/27 09:46:21;;;;;;;34.83;33.43;;;19.70;48.20;;;;;;5033090;28;20822;-45
2022/02/27 09:48:50;;;;;;;36.27;34.30;;;19.60;48.00;;;;;;5032820;28;20485;-43
2022/02/27 09:51:17;;;;;;;34.47;32.87;;;19.60;48.00;;;;;;5033829;28;20453;-44
2022/02/27 09:53:44;;;;;;;32.97;31.50;;;19.60;47.90;;;;;;5033491;28;20932;-45
2022/02/27 09:56:11;;;;;;;35.90;34.20;;;19.60;47.90;;;;;;5033475;28;20456;-44
2022/02/27 09:58:38;;;;;;;32.63;31.13;;;19.60;47.90;;;;;;5033142;28;20476;-43
2022/02/27 10:01:05;;;;;;;31.87;30.50;;;19.60;47.90;;;;;;5033424;28;20449;-44
2022/02/27 10:03:34;;;;;;;33.30;31.90;;;19.60;47.80;;;;;;5033636;28;20445;-43
2022/02/27 10:06:05;;;;;;;31.70;30.07;;;19.60;47.70;;;;;;5033331;28;20449;-44
2022/02/27 10:08:37;;;;;;;28.93;27.53;;;19.60;47.70;;;;;;5033048;28;20446;-46
2022/02/27 10:11:04;;;;;;;28.37;26.97;;;19.60;47.70;;;;;;5033216;28;20935;-44
2022/02/27 10:13:35;;;;;;;30.73;29.43;;;19.60;47.70;;;;;;5033474;28;20441;-45
2022/02/27 10:16:07;;;;;;;28.40;27.20;;;19.60;47.70;;;;;;5033221;28;20798;-47
2022/02/27 10:18:42;;;;;;;31.33;29.50;;;19.60;47.60;;;;;;5032915;28;20449;-47
2022/02/27 10:21:25;;;;;;;31.33;30.03;;;19.60;47.60;;;;;;5033463;28;20444;-45
2022/02/27 10:23:57;;;;;;;30.73;29.50;;;19.60;47.60;;;;;;5032935;28;20451;-44
2022/02/27 10:26:25;;;;;;;30.90;29.60;;;19.60;47.60;;;;;;5033078;28;20441;-43
2022/02/27 10:29:10;;;;;;;32.27;30.97;;;19.60;47.50;;;;;;5032531;28;20511;-44
2022/02/27 10:31:37;;;;;;;29.50;28.30;;;19.60;47.50;;;;;;5032872;28;20449;-46
2022/02/27 10:34:14;;;;;;;31.70;30.33;;;19.60;47.50;;;;;;5032836;28;20468;-44
2022/02/27 10:36:57;;;;;;;29.30;28.10;;;19.50;47.40;;;;;;5032604;28;20956;-43
2022/02/27 10:39:38;;;;;;;29.20;28.00;;;19.50;47.30;;;;;;5032671;28;20469;-43
2022/02/27 10:42:11;;;;;;;27.93;26.70;;;19.50;47.40;;;;;;5032597;28;20450;-42
2022/02/27 10:44:39;;;;;;;31.50;29.83;;;19.50;47.30;;;;;;5032607;28;20449;-45
2022/02/27 10:47:16;;;;;;;29.00;27.70;;;19.60;47.30;;;;;;5032685;28;20444;-43
2022/02/27 10:49:43;;;;;;;25.70;24.60;;;19.50;47.20;;;;;;5032219;28;20851;-45
2022/02/27 10:52:14;;;;;;;32.00;30.70;;;19.50;47.20;;;;;;5032558;28;20449;-44
2022/02/27 10:54:42;;;;;;;26.70;25.50;;;19.50;47.20;;;;;;5032676;28;20441;-45
2022/02/27 10:57:12;;;;;;;27.90;26.83;;;19.50;47.20;;;;;;5032458;28;20916;-47
2022/02/27 10:59:40;;;;;;;26.40;25.40;;;19.60;47.20;;;;;;5032189;28;20470;-49
2022/02/27 11:02:10;;;;;;;27.30;26.10;;;19.60;47.20;;;;;;5032322;28;20503;-46
2022/02/27 11:04:38;;;;;;;27.00;25.90;;;19.50;47.10;;;;;;5032146;28;20455;-48
2022/02/27 11:07:06;;;;;;;26.70;25.70;;;19.60;47.10;;;;;;5032158;28;20449;-46
2022/02/27 11:09:35;;;;;;;29.00;27.90;;;19.60;47.10;;;;;;5031738;28;20861;-43
2022/02/27 11:12:03;;;;;;;27.37;26.27;;;19.60;47.10;;;;;;5032830;28;20809;-46
2022/02/27 11:14:31;;;;;;;27.37;26.17;;;19.60;47.00;;;;;;5033214;28;20449;-47
2022/02/27 11:16:59;;;;;;;27.93;26.83;;;19.60;47.00;;;;;;5033046;28;20453;-51
2022/02/27 11:19:26;;;;;;;27.57;26.47;;;19.70;47.00;;;;;;5031900;28;20465;-49
2022/02/27 11:21:54;;;;;;;26.23;25.13;;;19.70;46.80;;;;;;5031955;28;20809;-45
2022/02/27 11:24:21;;;;;;;29.53;28.33;;;19.80;46.80;;;;;;5031899;28;20450;-46
2022/02/27 11:26:50;;;;;;;27.50;26.40;;;19.90;46.60;;;;;;5031891;28;20453;-46
2022/02/27 11:29:16;;;;;;;26.90;25.90;;;19.90;46.50;;;;;;5031566;28;20496;-46
2022/02/27 11:31:44;;;;;;;28.50;27.30;;;20.10;46.50;;;;;;5031852;28;20445;-45
2022/02/27 11:34:15;;;;;;;34.90;33.30;;;20.30;46.30;;;;;;5031648;28;20480;-45
2022/02/27 11:36:45;;;;;;;33.87;32.47;;;20.50;45.90;;;;;;5031789;28;20503;-48
2022/02/27 11:40:27;;;;;;;32.10;30.90;;;20.80;45.60;;;;;;5031571;28;20474;-45
2022/02/27 11:42:03;;;;;;;28.10;27.00;;;21.00;45.10;;;;;;5031690;28;20479;-45
2022/02/27 11:44:34;;;;;;;27.70;26.60;;;21.40;44.60;;;;;;5031766;28;20450;-45
2022/02/27 11:47:06;;;;;;;26.73;25.73;;;21.90;44.10;;;;;;5031540;28;20472;-45
2022/02/27 11:49:33;;;;;;;28.43;27.40;;;22.90;43.40;;;;;;5031134;28;20489;-45
2022/02/27 11:52:07;;;;;;;29.87;28.67;;;24.60;41.70;;;;;;5031684;28;20445;-45
2022/02/27 11:54:44;;;;;;;29.10;28.00;;;25.90;39.40;;;;;;5031584;28;20448;-46
2022/02/27 11:57:14;;;;;;;28.83;27.63;;;27.00;37.50;;;;;;5031631;28;20481;-48
2022/02/27 11:59:54;;;;;;;29.30;28.20;;;27.80;36.00;;;;;;5031139;28;20473;-46
2022/02/27 12:02:23;;;;;;;26.97;25.97;;;28.30;34.80;;;;;;5031489;28;20445;-46
2022/02/27 12:04:51;;;;;;;28.50;27.30;;;28.30;34.00;;;;;;5031783;28;20453;-46
2022/02/27 12:07:18;;;;;;;31.50;30.30;;;28.10;33.80;;;;;;5031439;28;20456;-45
2022/02/27 12:09:55;;;;;;;33.03;31.80;;;27.80;33.80;;;;;;5031034;28;20859;-47
2022/02/27 12:12:36;;;;;;;32.00;30.80;;;27.90;33.90;;;;;;5031206;28;20440;-46
2022/02/27 12:15:19;;;;;;;32.73;31.53;;;28.30;33.70;;;;;;5031599;28;20456;-49
2022/02/27 12:17:53;;;;;;;31.70;30.43;;;28.50;33.20;;;;;;5030950;28;20453;-46
2022/02/27 12:20:43;;;;;;;31.57;30.07;;;28.40;33.00;;;;;;5031175;28;20464;-46
2022/02/27 12:23:11;;;;;;;30.63;29.53;;;28.50;32.90;;;;;;5031299;28;20452;-46
2022/02/27 12:25:39;;;;;;;29.60;28.50;;;29.10;33.20;;;;;;5031530;28;20449;-46
2022/02/27 12:28:08;;;;;;;28.37;27.27;;;29.40;32.10;;;;;;5031100;28;20453;-46
2022/02/27 12:30:35;;;;;;;28.47;27.47;;;29.50;31.60;;;;;;5031087;28;20860;-46
2022/02/27 12:33:07;;;;;;;26.00;25.00;;;29.40;31.50;;;;;;5031216;28;20449;-46